createdAt,value
2022-09-09T00:04:00.240Z,61.4
2022-09-09T00:09:38.601Z,61.4
2022-09-09T00:15:14.508Z,61.3
2022-09-09T04:58:24.775Z,58.8
2022-09-09T05:04:03.177Z,58.6
2022-09-09T05:09:24.934Z,58.6
2022-09-09T05:15:05.133Z,58.7
2022-09-09T05:20:49.501Z,58.6
2022-09-09T05:36:59.024Z,58.5
2022-09-09T05:42:40.196Z,58.5
2022-09-09T05:48:18.391Z,58.4
2022-09-09T05:53:56.558Z,58.3
2022-09-09T05:59:18.603Z,58.3
2022-09-09T06:05:00.415Z,58.2
2022-09-09T06:10:39.246Z,58.3
2022-09-09T06:16:16.816Z,58.1
2022-09-09T06:21:53.826Z,58.1
2022-09-09T06:27:31.997Z,58
2022-09-09T06:33:10.516Z,58
2022-09-09T06:38:48.177Z,57.9
2022-09-09T06:44:26.282Z,57.9
2022-09-09T06:50:04.991Z,57.9
2022-09-09T06:55:44.584Z,57.8
2022-09-09T07:06:33.839Z,57.7
2022-09-09T07:12:03.659Z,57.7
2022-09-09T07:17:45.916Z,57.6
2022-09-09T07:23:22.924Z,57.6
2022-09-09T07:29:01.176Z,57.5
2022-09-09T07:34:47.412Z,57.4
2022-09-09T07:40:29.792Z,57.4
2022-09-09T07:46:08.417Z,57.4
2022-09-09T07:51:34.029Z,57.3
2022-09-09T07:57:13.434Z,57.3
2022-09-09T08:02:53.877Z,57.3
2022-09-09T08:08:16.585Z,57.2
2022-09-09T08:14:26.376Z,57.2
2022-09-09T08:20:03.561Z,57.1
2022-09-09T08:25:26.181Z,57.1
2022-09-09T08:31:03.909Z,57
2022-09-09T08:36:48.488Z,56.9
2022-09-09T08:42:30.161Z,56.9
2022-09-09T08:48:13.707Z,56.9
2022-09-09T08:53:35.105Z,56.8
2022-09-09T08:59:07.548Z,56.8
2022-09-09T09:04:34.674Z,56.8
2022-09-09T13:33:36.749Z,55.8
2022-09-09T13:39:17.501Z,55.8
2022-09-09T13:44:55.553Z,55.8
2022-09-09T13:50:36.106Z,55.7
2022-09-09T13:56:14.174Z,55.6
2022-09-09T14:02:06.174Z,55.6
2022-09-09T14:07:43.879Z,55.6
2022-09-09T14:13:22.236Z,55.5
2022-09-09T14:18:59.913Z,55.5
2022-09-09T14:24:43.332Z,55.5
2022-09-09T14:30:35.468Z,55.4
2022-09-09T14:35:57.725Z,55.4
2022-09-09T14:41:35.570Z,55.4
2022-09-09T14:52:37.237Z,55.3
2022-09-09T14:57:59.201Z,55.3
2022-09-09T15:03:38.785Z,55.3
2022-09-09T15:09:16.322Z,55.2
2022-09-09T15:14:56.960Z,55.1
2022-09-09T15:20:39.646Z,55.1
2022-09-09T15:26:17.390Z,55.1
2022-09-09T15:31:56.092Z,55.1
2022-09-09T15:37:34.306Z,55.1
2022-09-09T15:43:12.283Z,55
2022-09-09T15:48:51.131Z,55
2022-09-09T15:54:56.095Z,55
2022-09-09T16:00:33.696Z,54.9
2022-09-09T16:06:17.355Z,54.9
2022-09-09T16:12:00.737Z,54.8
2022-09-09T16:17:37.567Z,54.8
2022-09-09T16:23:14.934Z,54.8
2022-09-09T16:28:56.518Z,54.8
2022-09-09T16:34:39.211Z,54.7
2022-09-09T16:40:16.284Z,54.7
2022-09-09T16:45:54.785Z,54.6
2022-09-09T16:51:32.519Z,54.6
2022-09-09T16:57:10.155Z,54.6
2022-09-09T17:02:49.003Z,54.5
2022-09-09T17:08:32.559Z,54.5
2022-09-09T17:13:54.662Z,54.4
2022-09-09T17:19:50.466Z,54.4
2022-09-09T17:25:57.911Z,54.4
2022-09-09T17:31:19.714Z,54.4
2022-09-09T17:36:42.408Z,54.3
2022-09-09T17:42:24.534Z,54.3
2022-09-09T17:47:46.859Z,54.3
2022-09-09T17:53:09.548Z,54.3
2022-09-09T17:58:46.927Z,54.2
2022-09-09T18:04:26.026Z,54.1
2022-09-09T18:10:04.138Z,54.1
2022-09-09T18:15:55.802Z,54.1
2022-09-09T18:21:17.722Z,54.1
2022-09-09T18:26:56.096Z,54
2022-09-09T18:32:36.687Z,53.9
2022-09-09T18:38:17.556Z,53.9
2022-09-09T18:43:56.199Z,53.9
2022-09-09T18:49:33.127Z,53.9
2022-09-09T18:54:55.581Z,53.8
2022-09-09T19:00:33.546Z,53.7
2022-09-09T19:06:11.082Z,53.7
2022-09-09T19:11:39.354Z,53.7
2022-09-09T19:17:18.596Z,53.6
2022-09-09T19:22:39.729Z,53.6
2022-09-09T19:28:17.191Z,53.5
2022-09-09T19:34:31.800Z,53.5
2022-09-09T19:39:54.311Z,53.4
2022-09-09T19:45:16.715Z,53.4
2022-09-09T19:50:39.441Z,53.4
2022-09-09T19:56:18.533Z,53.4
2022-09-09T20:01:57.153Z,53.3
2022-09-09T20:07:57.590Z,53.3
2022-09-09T20:13:34.393Z,53.3
2022-09-09T20:19:12.319Z,53.3
2022-09-09T20:24:55.117Z,53.2
2022-09-09T20:30:21.990Z,53.1
2022-09-09T20:35:59.486Z,53.1
2022-09-09T20:41:39.517Z,53.1
2022-09-09T20:47:16.756Z,53
2022-09-09T20:52:59.855Z,53
2022-09-09T20:58:37.914Z,52.9
2022-09-09T21:04:15.196Z,52.9
2022-09-09T21:09:56.215Z,52.9
2022-09-09T21:15:34.542Z,52.9
2022-09-09T21:20:55.927Z,52.8
2022-09-09T21:26:33.478Z,52.8
2022-09-09T21:32:20.693Z,52.8
2022-09-09T21:38:02.917Z,52.7
2022-09-09T21:43:40.661Z,52.7
2022-09-09T21:49:17.873Z,52.6
2022-09-09T21:54:45.053Z,52.6
2022-09-09T22:00:22.216Z,52.5
2022-09-09T22:05:46.015Z,52.5
2022-09-09T22:11:23.795Z,52.5
2022-09-09T22:16:44.973Z,52.5
2022-09-09T22:22:22.835Z,52.4
2022-09-09T22:38:44.612Z,52.3
2022-09-09T22:43:50.814Z,52.3
2022-09-09T22:49:12.179Z,52.3
2022-09-09T22:54:39.791Z,52.3
2022-09-09T23:00:18.043Z,52.2
2022-09-09T23:05:55.406Z,52.2
2022-09-09T23:11:17.934Z,52.2
2022-09-09T23:16:55.650Z,52.1
2022-09-09T23:22:16.613Z,52.1
2022-09-09T23:27:54.707Z,52
2022-09-09T23:33:17.028Z,52
2022-09-09T23:53:43.759Z,51.9
2022-09-09T23:59:06.098Z,51.8
